createdAt,value
2023-04-08T00:01:02.764Z,7.34
2023-04-08T00:03:30.740Z,7.17
2023-04-08T00:05:58.756Z,6.93
2023-04-08T00:08:26.482Z,6.83
2023-04-08T00:10:54.296Z,6.73
2023-04-08T00:13:22.132Z,6.75
2023-04-08T00:15:49.895Z,6.81
2023-04-08T00:18:19.070Z,6.87
2023-04-08T00:20:46.889Z,6.64
2023-04-08T00:23:14.581Z,6.69
2023-04-08T00:25:42.442Z,6.67
2023-04-08T00:28:10.382Z,6.84
2023-04-08T00:30:38.301Z,6.72
2023-04-08T00:33:06.112Z,6.71
2023-04-08T00:35:35.383Z,6.75
2023-04-08T00:38:03.413Z,6.64
2023-04-08T00:40:31.147Z,6.80
2023-04-08T00:42:58.934Z,6.64
2023-04-08T00:45:27.206Z,6.53
2023-04-08T00:47:54.969Z,6.66
2023-04-08T00:50:22.788Z,6.59
2023-04-08T00:52:51.964Z,6.50
2023-04-08T00:55:19.796Z,6.31
2023-04-08T00:57:47.733Z,6.46
2023-04-08T01:00:16.692Z,6.50
2023-04-08T01:02:49.653Z,6.41
2023-04-08T01:05:26.780Z,6.40
2023-04-08T01:07:56.485Z,6.12
2023-04-08T01:10:28.452Z,6.26
2023-04-08T01:12:58.210Z,6.32
2023-04-08T01:15:27.511Z,6.27
2023-04-08T01:17:56.673Z,5.98
2023-04-08T01:20:26.028Z,5.88
2023-04-08T01:23:05.091Z,6.16
2023-04-08T01:25:33.988Z,6.08
2023-04-08T01:28:05.863Z,5.83
2023-04-08T01:30:34.893Z,6.22
2023-04-08T01:33:03.640Z,6.31
2023-04-08T01:35:32.166Z,6.03
2023-04-08T01:38:00.661Z,5.71
2023-04-08T01:40:28.560Z,5.54
2023-04-08T01:42:57.720Z,5.88
2023-04-08T01:45:27.762Z,5.76
2023-04-08T01:47:56.606Z,5.65
2023-04-08T01:50:25.127Z,5.54
2023-04-08T01:52:53.858Z,5.68
2023-04-08T01:55:22.215Z,5.56
2023-04-08T01:57:52.107Z,5.64
2023-04-08T02:00:22.305Z,5.71
2023-04-08T02:02:52.056Z,5.49
2023-04-08T02:05:20.129Z,5.45
2023-04-08T02:07:48.517Z,5.29
2023-04-08T02:10:16.800Z,5.35
2023-04-08T02:12:45.431Z,5.54
2023-04-08T02:15:14.067Z,5.32
2023-04-08T02:17:46.135Z,5.43
2023-04-08T02:20:20.104Z,5.41
2023-04-08T02:22:50.787Z,5.34
2023-04-08T02:25:24.578Z,5.35
2023-04-08T02:27:53.580Z,5.39
2023-04-08T02:30:21.501Z,5.31
2023-04-08T02:32:49.486Z,5.55
2023-04-08T02:35:19.336Z,5.48
2023-04-08T02:37:48.706Z,5.40
2023-04-08T02:40:26.955Z,5.58
2023-04-08T02:42:54.883Z,5.35
2023-04-08T02:45:23.096Z,5.54
2023-04-08T02:47:50.993Z,5.63
2023-04-08T02:50:20.070Z,5.22
2023-04-08T02:52:47.776Z,5.22
2023-04-08T02:55:15.421Z,5.27
2023-04-08T02:57:43.975Z,5.09
2023-04-08T03:00:13.073Z,4.92
2023-04-08T03:02:41.227Z,4.93
2023-04-08T03:05:10.183Z,5.07
2023-04-08T03:07:39.610Z,5.13
2023-04-08T03:10:08.829Z,5.06
2023-04-08T03:12:36.595Z,5.05
2023-04-08T03:15:04.528Z,5.11
2023-04-08T03:17:33.846Z,5.00
2023-04-08T03:20:01.901Z,5.09
2023-04-08T03:22:29.675Z,4.78
2023-04-08T03:24:58.765Z,4.75
2023-04-08T03:27:26.767Z,4.95
2023-04-08T03:29:54.541Z,4.89
2023-04-08T03:32:22.301Z,5.01
2023-04-08T03:34:51.335Z,4.77
2023-04-08T03:37:19.203Z,5.04
2023-04-08T03:39:47.183Z,5.31
2023-04-08T03:42:16.288Z,5.06
2023-04-08T03:44:44.072Z,4.98
2023-04-08T03:47:11.850Z,4.84
2023-04-08T03:49:39.625Z,4.75
2023-04-08T03:52:07.539Z,4.95
2023-04-08T03:54:35.252Z,5.06
2023-04-08T03:57:03.081Z,5.12
2023-04-08T03:59:33.900Z,4.75
2023-04-08T04:02:01.654Z,4.74
2023-04-08T04:04:29.504Z,5.00
2023-04-08T04:06:57.282Z,5.01
2023-04-08T04:09:24.974Z,5.01
2023-04-08T04:11:52.692Z,4.98
2023-04-08T04:14:20.414Z,4.88
2023-04-08T04:16:49.475Z,5.16
2023-04-08T04:19:17.822Z,4.96
2023-04-08T04:21:45.595Z,5.02
2023-04-08T04:24:13.527Z,5.07
2023-04-08T04:26:41.822Z,4.88
2023-04-08T04:29:09.639Z,4.85
2023-04-08T04:31:37.386Z,4.92
2023-04-08T04:34:06.768Z,5.32
2023-04-08T04:36:34.568Z,5.27
2023-04-08T04:39:02.321Z,5.27
2023-04-08T04:41:29.964Z,5.23
2023-04-08T04:43:57.688Z,5.06
2023-04-08T04:46:25.421Z,5.23
2023-04-08T04:48:53.311Z,5.51
2023-04-08T04:51:22.347Z,5.52
2023-04-08T04:53:50.581Z,5.45
2023-04-08T04:56:18.253Z,5.50
2023-04-08T04:58:46.013Z,5.50
2023-04-08T05:01:13.878Z,5.38
2023-04-08T05:03:41.748Z,5.51
2023-04-08T05:06:09.471Z,5.40
2023-04-08T05:08:38.522Z,5.53
2023-04-08T05:11:10.466Z,5.53
2023-04-08T05:13:38.188Z,5.63
2023-04-08T05:16:06.297Z,5.65
2023-04-08T05:18:34.049Z,5.51
2023-04-08T05:21:01.811Z,5.61
2023-04-08T05:23:29.588Z,5.74
2023-04-08T05:25:58.676Z,5.60
2023-04-08T05:28:26.390Z,5.71
2023-04-08T05:30:54.595Z,5.85
2023-04-08T05:33:22.491Z,5.73
2023-04-08T05:35:50.416Z,5.63
2023-04-08T05:38:18.201Z,5.72
2023-04-08T05:40:45.920Z,5.47
2023-04-08T05:43:15.020Z,5.94
2023-04-08T05:45:42.765Z,5.79
2023-04-08T05:48:10.520Z,5.86
2023-04-08T05:50:38.255Z,5.70
2023-04-08T05:53:06.081Z,5.85
2023-04-08T05:55:33.849Z,6.04
2023-04-08T05:58:01.606Z,6.05
2023-04-08T06:00:30.782Z,6.13
2023-04-08T06:02:58.742Z,5.99
2023-04-08T06:05:26.847Z,6.19
2023-04-08T06:07:54.540Z,5.84
2023-04-08T06:10:22.222Z,6.05
2023-04-08T06:12:49.924Z,6.52
2023-04-08T06:15:17.729Z,6.45
2023-04-08T06:17:46.853Z,6.75
2023-04-08T06:20:14.599Z,6.76
2023-04-08T06:22:42.313Z,6.64
2023-04-08T06:25:10.394Z,6.11
2023-04-08T06:27:38.085Z,6.73
2023-04-08T06:30:06.521Z,6.62
2023-04-08T06:32:34.271Z,6.58
2023-04-08T06:35:03.551Z,7.12
2023-04-08T06:37:31.297Z,7.36
2023-04-08T06:39:59.035Z,7.52
2023-04-08T06:42:27.289Z,7.68
2023-04-08T06:44:55.022Z,8.21
2023-04-08T06:47:22.754Z,7.81
2023-04-08T06:49:50.488Z,8.06
2023-04-08T06:52:19.621Z,7.83
2023-04-08T06:54:47.456Z,7.26
2023-04-08T06:58:19.019Z,7.40
2023-04-08T07:00:47.191Z,7.52
2023-04-08T07:03:14.962Z,7.56
2023-04-08T07:05:43.006Z,7.61
2023-04-08T07:08:10.672Z,7.73
2023-04-08T07:10:38.385Z,8.04
2023-04-08T07:13:06.083Z,8.09
2023-04-08T07:15:35.232Z,7.95
2023-04-08T07:18:04.701Z,8.23
2023-04-08T07:20:32.504Z,7.75
2023-04-08T07:23:00.359Z,8.17
2023-04-08T07:25:28.070Z,8.35
2023-04-08T07:27:56.321Z,8.51
2023-04-08T07:30:24.580Z,8.13
2023-04-08T07:32:56.249Z,7.98
2023-04-08T07:35:26.052Z,8.19
2023-04-08T07:37:55.017Z,8.30
2023-04-08T07:40:22.705Z,8.44
2023-04-08T07:42:50.447Z,8.18
2023-04-08T07:45:18.180Z,8.27
2023-04-08T07:47:46.120Z,8.37
2023-04-08T07:50:15.505Z,8.49
2023-04-08T07:52:43.172Z,8.84
2023-04-08T07:55:11.260Z,8.74
2023-04-08T07:57:39.086Z,9.16
2023-04-08T08:00:08.459Z,9.36
2023-04-08T08:02:36.165Z,9.56
2023-04-08T08:05:04.065Z,9.32
2023-04-08T08:07:33.114Z,9.21
2023-04-08T08:10:00.791Z,9.58
2023-04-08T08:12:28.448Z,9.34
2023-04-08T08:14:59.068Z,9.77
2023-04-08T08:17:30.038Z,9.85
2023-04-08T08:19:57.846Z,10.01
2023-04-08T08:22:25.565Z,10.39
2023-04-08T08:24:58.034Z,10.75
2023-04-08T08:27:25.913Z,9.89
2023-04-08T08:29:53.706Z,9.72
2023-04-08T08:32:21.415Z,10.24
2023-04-08T08:34:49.165Z,10.44
2023-04-08T08:37:16.870Z,9.80
2023-04-08T08:39:44.577Z,9.86
2023-04-08T08:42:22.301Z,9.64
2023-04-08T08:44:50.469Z,9.98
2023-04-08T08:47:18.891Z,10.14
2023-04-08T08:49:46.743Z,10.18
2023-04-08T08:52:17.765Z,10.15
2023-04-08T08:54:46.040Z,9.76
2023-04-08T08:57:21.316Z,9.80
2023-04-08T08:59:49.047Z,10.17
2023-04-08T09:02:28.053Z,9.96
2023-04-08T09:05:00.603Z,10.62
2023-04-08T09:07:29.255Z,10.74
2023-04-08T09:09:58.426Z,11.03
2023-04-08T09:12:28.452Z,10.94
2023-04-08T09:15:07.210Z,11.00
2023-04-08T09:17:36.072Z,11.46
2023-04-08T09:20:11.507Z,11.17
2023-04-08T09:22:59.248Z,10.79
2023-04-08T09:25:27.879Z,10.09
2023-04-08T09:27:57.046Z,9.85
2023-04-08T09:30:26.421Z,10.48
2023-04-08T09:32:56.078Z,10.55
2023-04-08T09:35:24.824Z,10.84
2023-04-08T09:37:52.890Z,11.31
2023-04-08T09:40:20.614Z,10.82
2023-04-08T09:42:51.186Z,10.70
2023-04-08T09:45:20.467Z,11.36
2023-04-08T09:47:58.156Z,11.06
2023-04-08T09:50:28.811Z,11.03
2023-04-08T09:53:02.296Z,11.32
2023-04-08T09:55:32.944Z,11.14
2023-04-08T09:58:04.184Z,11.06
2023-04-08T10:00:34.852Z,11.60
2023-04-08T10:03:08.471Z,11.73
2023-04-08T10:05:38.813Z,11.53
2023-04-08T10:08:07.319Z,11.05
2023-04-08T10:10:35.822Z,11.47
2023-04-08T10:13:04.021Z,11.51
2023-04-08T10:15:33.946Z,11.60
2023-04-08T10:18:33.938Z,10.58
2023-04-08T10:21:02.434Z,10.82
2023-04-08T10:23:54.784Z,10.28
2023-04-08T10:26:33.621Z,10.66
2023-04-08T10:29:32.810Z,10.58
2023-04-08T10:32:02.827Z,10.42
2023-04-08T10:34:30.777Z,10.69
2023-04-08T10:37:02.238Z,10.68
2023-04-08T10:39:29.988Z,10.91
2023-04-08T10:41:57.748Z,10.82
2023-04-08T10:44:26.726Z,11.10
2023-04-08T10:46:55.759Z,11.33
2023-04-08T10:49:33.821Z,12.36
2023-04-08T10:52:01.967Z,13.13
2023-04-08T10:54:29.737Z,12.63
2023-04-08T10:56:57.490Z,12.27
2023-04-08T10:59:32.866Z,12.48
2023-04-08T11:02:01.525Z,13.38
2023-04-08T11:04:30.911Z,12.74
2023-04-08T11:06:59.150Z,12.08
2023-04-08T11:09:27.495Z,13.18
2023-04-08T11:11:56.622Z,12.61
2023-04-08T11:14:25.093Z,13.70
2023-04-08T11:16:53.257Z,13.16
2023-04-08T11:19:21.495Z,13.07
2023-04-08T11:21:52.736Z,13.99
2023-04-08T11:24:22.347Z,12.80
2023-04-08T11:26:50.304Z,13.47
2023-04-08T11:29:18.162Z,13.85
2023-04-08T11:31:47.266Z,13.95
2023-04-08T11:34:23.418Z,13.10
2023-04-08T11:36:52.576Z,11.90
2023-04-08T11:39:24.097Z,13.11
2023-04-08T11:41:51.901Z,11.70
2023-04-08T11:44:19.716Z,12.45
2023-04-08T11:46:55.314Z,11.50
2023-04-08T11:49:23.127Z,11.94
2023-04-08T11:51:59.232Z,12.74
2023-04-08T11:54:27.615Z,12.96
2023-04-08T11:56:56.095Z,13.77
2023-04-08T11:59:23.789Z,13.02
2023-04-08T12:01:52.853Z,11.93
2023-04-08T12:04:20.777Z,12.02
2023-04-08T12:06:48.524Z,11.92
2023-04-08T12:09:17.630Z,12.09
2023-04-08T12:11:45.482Z,12.39
2023-04-08T12:14:13.272Z,12.94
2023-04-08T12:16:41.413Z,12.70
2023-04-08T12:19:09.108Z,12.17
2023-04-08T12:21:36.905Z,12.96
2023-04-08T12:24:04.687Z,13.26
2023-04-08T12:26:33.862Z,12.94
2023-04-08T12:29:01.636Z,13.32
2023-04-08T12:31:29.418Z,13.09
2023-04-08T12:33:57.120Z,12.83
2023-04-08T12:36:25.019Z,13.17
2023-04-08T12:38:52.979Z,14.09
2023-04-08T12:41:20.775Z,13.93
2023-04-08T12:43:49.756Z,13.71
2023-04-08T12:46:17.649Z,13.22
2023-04-08T12:51:15.109Z,13.42
2023-04-08T12:53:42.998Z,13.24
2023-04-08T12:56:10.944Z,13.53
2023-04-08T12:58:38.724Z,13.82
2023-04-08T13:01:08.014Z,12.90
2023-04-08T13:03:36.284Z,12.69
2023-04-08T13:06:04.301Z,12.84
2023-04-08T13:08:32.014Z,13.63
2023-04-08T13:10:59.712Z,13.21
2023-04-08T13:13:27.557Z,13.12
2023-04-08T13:15:55.278Z,13.94
2023-04-08T13:18:24.329Z,13.16
2023-04-08T13:20:52.102Z,12.74
2023-04-08T13:23:19.928Z,12.83
2023-04-08T13:25:47.645Z,12.91
2023-04-08T13:28:15.635Z,12.17
2023-04-08T13:30:43.522Z,12.46
2023-04-08T13:33:11.293Z,12.84
2023-04-08T13:35:40.631Z,12.39
2023-04-08T13:38:08.592Z,12.46
2023-04-08T13:40:36.326Z,12.24
2023-04-08T13:43:04.058Z,12.34
2023-04-08T13:45:31.980Z,12.55
2023-04-08T13:47:59.793Z,13.01
2023-04-08T13:50:28.040Z,12.97
2023-04-08T13:52:57.291Z,12.74
2023-04-08T13:55:25.034Z,12.77
2023-04-08T13:57:52.816Z,12.64
2023-04-08T14:00:20.887Z,13.05
2023-04-08T14:02:48.714Z,13.17
2023-04-08T14:05:16.672Z,12.39
2023-04-08T14:07:44.322Z,12.10
2023-04-08T14:10:14.600Z,12.83
2023-04-08T14:12:42.368Z,12.60
2023-04-08T14:15:11.041Z,12.77
2023-04-08T14:17:38.897Z,12.69
2023-04-08T14:20:08.082Z,12.56
2023-04-08T14:22:35.829Z,12.70
2023-04-08T14:25:03.669Z,12.83
2023-04-08T14:27:32.990Z,12.29
2023-04-08T14:30:01.867Z,12.43
2023-04-08T14:32:29.561Z,12.54
2023-04-08T14:34:57.727Z,12.61
2023-04-08T14:37:25.552Z,13.12
2023-04-08T14:39:53.308Z,13.01
2023-04-08T14:42:22.473Z,12.18
2023-04-08T14:44:51.766Z,12.28
2023-04-08T14:47:19.433Z,11.74
2023-04-08T14:49:47.926Z,12.58
2023-04-08T14:52:15.954Z,12.94
2023-04-08T14:54:45.145Z,12.01
2023-04-08T14:57:13.166Z,12.18
2023-04-08T14:59:40.896Z,12.68
2023-04-08T15:02:10.048Z,11.94
2023-04-08T15:04:37.814Z,11.99
2023-04-08T15:07:06.301Z,12.26
2023-04-08T15:09:34.095Z,12.13
2023-04-08T15:12:02.639Z,12.92
2023-04-08T15:14:30.353Z,12.75
2023-04-08T15:16:58.122Z,13.08
2023-04-08T15:19:27.196Z,12.74
2023-04-08T15:21:54.863Z,12.40
2023-04-08T15:24:22.830Z,12.35
2023-04-08T15:26:50.511Z,12.46
2023-04-08T15:29:18.171Z,12.47
2023-04-08T15:31:45.866Z,12.61
2023-04-08T15:34:13.595Z,12.72
2023-04-08T15:36:42.704Z,13.28
2023-04-08T15:39:10.793Z,12.89
2023-04-08T15:41:38.898Z,12.73
2023-04-08T15:44:06.602Z,13.07
2023-04-08T15:46:36.802Z,13.45
2023-04-08T15:49:05.269Z,13.18
2023-04-08T15:51:33.421Z,12.51
2023-04-08T15:54:02.811Z,12.41
2023-04-08T15:56:30.558Z,12.73
2023-04-08T15:58:58.432Z,12.90
2023-04-08T16:01:26.242Z,13.61
2023-04-08T16:03:54.056Z,13.01
2023-04-08T16:06:21.838Z,12.92
2023-04-08T16:08:50.360Z,13.09
2023-04-08T16:11:19.610Z,13.05
2023-04-08T16:13:47.301Z,12.81
2023-04-08T16:16:15.070Z,12.55
2023-04-08T16:18:46.008Z,12.35
2023-04-08T16:21:14.565Z,12.96
2023-04-08T16:23:42.264Z,13.21
2023-04-08T16:26:09.992Z,12.98
2023-04-08T16:28:39.907Z,13.50
2023-04-08T16:31:07.940Z,12.66
2023-04-08T16:33:35.923Z,13.09
2023-04-08T16:36:04.283Z,13.38
2023-04-08T16:38:33.078Z,13.13
2023-04-08T16:41:01.154Z,12.83
2023-04-08T16:43:29.401Z,13.53
2023-04-08T16:45:58.462Z,13.12
2023-04-08T16:48:26.249Z,12.72
2023-04-08T16:50:53.967Z,12.70
2023-04-08T16:53:21.650Z,11.87
2023-04-08T16:55:49.322Z,11.96
2023-04-08T16:58:17.120Z,11.97
2023-04-08T17:00:44.792Z,12.63
2023-04-08T17:03:13.859Z,12.33
2023-04-08T17:05:41.806Z,12.38
2023-04-08T17:08:09.558Z,12.05
2023-04-08T17:10:37.433Z,12.59
2023-04-08T17:13:05.659Z,12.67
2023-04-08T17:15:36.092Z,12.83
2023-04-08T17:18:03.858Z,13.18
2023-04-08T17:20:32.976Z,13.58
2023-04-08T17:23:00.719Z,13.72
2023-04-08T17:25:28.434Z,13.77
2023-04-08T17:27:56.732Z,12.97
2023-04-08T17:30:24.595Z,12.59
2023-04-08T17:32:52.766Z,12.52
2023-04-08T17:35:20.616Z,12.51
2023-04-08T17:37:50.269Z,12.09
2023-04-08T17:40:18.431Z,12.38
2023-04-08T17:42:46.654Z,12.06
2023-04-08T17:45:14.588Z,12.22
2023-04-08T17:47:43.290Z,12.28
2023-04-08T17:50:11.919Z,12.12
2023-04-08T17:52:39.777Z,12.54
2023-04-08T17:55:10.128Z,12.36
2023-04-08T17:57:38.975Z,11.58
2023-04-08T18:00:08.156Z,11.74
2023-04-08T18:02:36.961Z,12.08
2023-04-08T18:05:06.547Z,12.41
2023-04-08T18:07:34.426Z,11.94
2023-04-08T18:10:02.411Z,12.47
2023-04-08T18:12:31.783Z,12.38
2023-04-08T18:14:59.984Z,12.44
2023-04-08T18:17:27.695Z,12.65
2023-04-08T18:19:55.374Z,12.67
2023-04-08T18:22:23.035Z,12.84
2023-04-08T18:24:50.712Z,12.82
2023-04-08T18:27:18.399Z,12.61
2023-04-08T18:29:47.420Z,12.88
2023-04-08T18:32:15.152Z,13.05
2023-04-08T18:34:42.784Z,12.61
2023-04-08T18:37:10.998Z,12.13
2023-04-08T18:39:41.032Z,11.21
2023-04-08T18:42:08.765Z,11.85
2023-04-08T18:44:36.537Z,11.65
2023-04-08T18:47:05.749Z,12.27
2023-04-08T18:49:34.115Z,12.54
2023-04-08T18:52:03.415Z,12.43
2023-04-08T18:54:31.547Z,12.63
2023-04-08T18:56:59.479Z,12.57
2023-04-08T18:59:28.765Z,11.82
2023-04-08T19:01:57.011Z,11.95
2023-04-08T19:04:26.369Z,12.41
2023-04-08T19:06:54.185Z,11.85
2023-04-08T19:09:21.886Z,11.65
2023-04-08T19:11:49.600Z,11.71
2023-04-08T19:14:17.643Z,11.70
2023-04-08T19:16:46.022Z,11.61
2023-04-08T19:19:13.734Z,12.05
2023-04-08T19:21:42.840Z,11.86
2023-04-08T19:24:10.566Z,11.82
2023-04-08T19:26:38.327Z,11.90
2023-04-08T19:29:06.088Z,11.59
2023-04-08T19:31:33.764Z,11.58
2023-04-08T19:34:01.456Z,11.51
2023-04-08T19:36:29.231Z,11.13
2023-04-08T19:38:58.282Z,11.74
2023-04-08T19:41:26.242Z,11.63
2023-04-08T19:43:54.223Z,12.06
2023-04-08T19:46:22.098Z,11.96
2023-04-08T19:48:49.820Z,11.72
2023-04-08T19:51:20.269Z,11.79
2023-04-08T19:53:48.024Z,11.10
2023-04-08T19:56:17.237Z,11.40
2023-04-08T19:58:44.920Z,11.68
2023-04-08T20:01:14.145Z,11.87
2023-04-08T20:03:42.116Z,11.69
2023-04-08T20:06:10.029Z,11.96
2023-04-08T20:08:37.714Z,12.21
2023-04-08T20:11:05.375Z,12.30
2023-04-08T20:13:34.440Z,12.35
2023-04-08T20:16:02.695Z,12.54
2023-04-08T20:18:30.523Z,12.42
2023-04-08T20:20:59.550Z,12.28
2023-04-08T20:23:28.516Z,12.14
2023-04-08T20:25:56.763Z,12.23
2023-04-08T20:28:25.643Z,12.22
2023-04-08T20:30:54.693Z,11.88
2023-04-08T20:33:22.423Z,12.29
2023-04-08T20:35:53.087Z,12.37
2023-04-08T20:38:20.840Z,12.27
2023-04-08T20:40:48.853Z,12.17
2023-04-08T20:43:16.798Z,11.92
2023-04-08T20:45:44.466Z,12.13
2023-04-08T20:48:13.537Z,12.20
2023-04-08T20:50:41.484Z,12.34
2023-04-08T20:53:10.255Z,12.41
2023-04-08T20:55:37.987Z,12.28
2023-04-08T20:58:07.508Z,12.23
2023-04-08T21:00:35.357Z,12.15
2023-04-08T21:03:03.321Z,12.30
2023-04-08T21:05:32.565Z,12.16
2023-04-08T21:08:00.268Z,12.13
2023-04-08T21:10:28.099Z,12.29
2023-04-08T21:12:55.798Z,12.18
2023-04-08T21:15:23.493Z,12.25
2023-04-08T21:17:51.192Z,12.58
2023-04-08T21:20:19.150Z,11.79
2023-04-08T21:22:48.236Z,12.05
2023-04-08T21:25:16.028Z,12.09
2023-04-08T21:27:43.766Z,12.10
2023-04-08T21:30:12.068Z,11.99
2023-04-08T21:32:39.922Z,12.22
2023-04-08T21:35:08.127Z,12.26
2023-04-08T21:37:35.837Z,12.05
2023-04-08T21:40:05.203Z,12.13
2023-04-08T21:42:32.991Z,12.24
2023-04-08T21:45:00.835Z,12.11
2023-04-08T21:47:28.615Z,11.74
2023-04-08T21:49:56.853Z,11.61
2023-04-08T21:52:26.439Z,11.40
2023-04-08T21:54:54.219Z,11.43
2023-04-08T21:57:23.306Z,11.07
2023-04-08T21:59:51.012Z,11.06
2023-04-08T22:02:18.843Z,10.96
2023-04-08T22:04:46.601Z,11.19
2023-04-08T22:07:14.426Z,11.19
2023-04-08T22:09:42.147Z,11.35
2023-04-08T22:12:10.710Z,11.17
2023-04-08T22:14:39.858Z,11.05
2023-04-08T22:17:07.562Z,11.50
2023-04-08T22:19:35.571Z,11.24
2023-04-08T22:22:03.243Z,11.05
2023-04-08T22:24:30.921Z,11.34
2023-04-08T22:26:58.768Z,11.28
2023-04-08T22:29:26.476Z,11.09
2023-04-08T22:31:55.567Z,11.02
2023-04-08T22:34:23.311Z,11.25
2023-04-08T22:36:51.031Z,11.14
2023-04-08T22:39:18.734Z,11.20
2023-04-08T22:41:46.822Z,10.97
2023-04-08T22:44:14.599Z,11.20
2023-04-08T22:46:42.348Z,11.44
2023-04-08T22:49:11.459Z,11.48
2023-04-08T22:51:39.378Z,11.29
2023-04-08T22:54:07.148Z,11.05
2023-04-08T22:56:34.879Z,11.35
2023-04-08T22:59:02.639Z,11.39
2023-04-08T23:01:30.521Z,11.71
2023-04-08T23:03:58.275Z,11.17
2023-04-08T23:06:28.901Z,11.33
2023-04-08T23:08:56.543Z,11.38
2023-04-08T23:11:24.260Z,11.42
2023-04-08T23:13:51.932Z,10.94
2023-04-08T23:16:19.717Z,10.47
2023-04-08T23:18:47.512Z,10.82
2023-04-08T23:21:15.503Z,10.86
2023-04-08T23:23:44.585Z,10.99
2023-04-08T23:26:17.851Z,11.34
2023-04-08T23:28:45.574Z,11.26
2023-04-08T23:31:13.399Z,10.71
2023-04-08T23:33:41.169Z,10.97
2023-04-08T23:36:09.249Z,10.92
2023-04-08T23:38:37.974Z,11.30
2023-04-08T23:41:08.534Z,11.28
2023-04-08T23:43:36.403Z,11.25
2023-04-08T23:46:04.225Z,11.38
2023-04-08T23:48:31.928Z,11.61
2023-04-08T23:50:59.717Z,11.66
2023-04-08T23:53:27.399Z,11.59
2023-04-08T23:55:55.152Z,11.49
2023-04-08T23:58:24.259Z,11.72
